Time;durP1;ratioP1;P1;durP2;ratioP2;P2;SDS_P1;SDS_P2;PMS_P1;PMS_P2;Temp;Humidity;BMP_temperature;BMP_pressure;BME280_temperature;BME280_humidity;BME280_pressure;Samples;Min_cycle;Max_cycle;Signal;HPM_P1;HPM_P2
2023/01/05 00:00:27;;;;;;;;;;;;;;;;;;6229090;23;19919;-76
2023/01/05 00:02:53;;;;;;;;;;;;;;;;;;6228913;23;19911;-75
2023/01/05 00:05:19;;;;;;;;;;;;;;;;;;6230817;23;19923;-76
2023/01/05 00:07:45;;;;;;;;;;;;;;;;;;6232283;23;19946;-76
2023/01/05 00:22:29;;;;;;;;;;;;;;;;;;6244227;23;19923;-77
2023/01/05 00:23:54;;;;;;;;;;;;;;;;;;6249187;23;19922;-75
2023/01/05 00:26:19;;;;;;;;;;;;;;;;;;6260167;23;19911;-76
2023/01/05 00:28:45;;;;;;;;;;;;;;;;;;6204082;23;19935;-76
2023/01/05 00:31:11;;;;;;;;;;;;;;;;;;6219256;23;19923;-75
2023/01/05 00:33:37;;;;;;;;;;;;;;;;;;6213953;23;19911;-75
2023/01/05 00:36:04;;;;;;;;;;;;;;;;;;6222804;23;19920;-75
2023/01/05 00:38:30;;;;;;;;;;;;;;;;;;6219513;23;19912;-76
2023/01/05 00:40:56;;;;;;;;;;;;;;;;;;6213041;23;19911;-74
2023/01/05 00:43:21;;;;;;;;;;;;;;;;;;6163808;23;19977;-76
2023/01/05 00:45:47;;;;;;;;;;;;;;;;;;6239882;23;19912;-75
2023/01/05 00:48:13;;;;;;;;;;;;;;;;;;6239809;23;19935;-75
2023/01/05 00:50:39;;;;;;;;;;;;;;;;;;6239221;23;19920;-73
2023/01/05 00:53:04;;;;;;;;;;;;;;;;;;6239956;23;19908;-75
2023/01/05 00:55:30;;;;;;;;;;;;;;;;;;6212584;23;20229;-75
2023/01/05 00:57:56;;;;;;;;;;;;;;;;;;6212728;23;19972;-74
2023/01/05 01:00:21;;;;;;;;;;;;;;;;;;6213343;23;19977;-74
2023/01/05 01:02:47;;;;;;;;;;;;;;;;;;6212761;23;19911;-74
2023/01/05 01:05:13;;;;;;;;;;;;;;;;;;6213218;23;19912;-76
2023/01/05 01:07:39;;;;;;;;;;;;;;;;;;6212410;23;19969;-74
2023/01/05 01:10:05;;;;;;;;;;;;;;;;;;6239465;23;19915;-76
2023/01/05 01:12:30;;;;;;;;;;;;;;;;;;6240088;23;19965;-76
2023/01/05 01:14:56;;;;;;;;;;;;;;;;;;6187300;23;20361;-76
2023/01/05 01:17:22;;;;;;;;;;;;;;;;;;6213724;23;20344;-77
2023/01/05 01:19:48;;;;;;;;;;;;;;;;;;6240964;23;20260;-77
2023/01/05 01:22:13;;;;;;;;;;;;;;;;;;6240841;23;19918;-76
2023/01/05 01:24:39;;;;;;;;;;;;;;;;;;6215271;23;20010;-76
2023/01/05 01:27:05;;;;;;;;;;;;;;;;;;6190513;23;20444;-77
2023/01/05 01:29:31;;;;;;;;;;;;;;;;;;6215887;23;20375;-77
2023/01/05 01:31:57;;;;;;;;;;;;;;;;;;6242407;23;19920;-76
2023/01/05 01:34:23;;;;;;;;;;;;;;;;;;6215587;23;19912;-77
2023/01/05 01:36:48;;;;;;;;;;;;;;;;;;6215205;23;19923;-77
2023/01/05 01:39:18;;;;;;;;;;;;;;;;;;6215441;23;20257;-77
2023/01/05 01:41:47;;;;;;;;;;;;;;;;;;6215493;23;19912;-76
2023/01/05 01:44:12;;;;;;;;;;;;;;;;;;6242381;23;19919;-75
2023/01/05 01:46:38;;;;;;;;;;;;;;;;;;6242092;23;20397;-76
2023/01/05 01:49:04;;;;;;;;;;;;;;;;;;6242333;23;20002;-75
2023/01/05 01:51:29;;;;;;;;;;;;;;;;;;6215995;23;19965;-74
2023/01/05 01:53:55;;;;;;;;;;;;;;;;;;6215297;23;19958;-76
2023/01/05 01:56:21;;;;;;;;;;;;;;;;;;6241913;23;19973;-75
2023/01/05 01:58:46;;;;;;;;;;;;;;;;;;6215021;23;19986;-75
2023/01/05 02:01:12;;;;;;;;;;;;;;;;;;6215193;23;19915;-75
2023/01/05 02:03:38;;;;;;;;;;;;;;;;;;6214590;23;19919;-76
2023/01/05 02:06:04;;;;;;;;;;;;;;;;;;6242361;23;20003;-76
2023/01/05 02:08:30;;;;;;;;;;;;;;;;;;6242613;23;19911;-76
2023/01/05 02:10:56;;;;;;;;;;;;;;;;;;6216094;23;19942;-76
2023/01/05 02:13:22;;;;;;;;;;;;;;;;;;6242701;23;20348;-76
2023/01/05 02:16:07;;;;;;;;;;;;;;;;;;6220234;23;20264;-77
2023/01/05 02:18:33;;;;;;;;;;;;;;;;;;6215394;23;19912;-76
2023/01/05 02:20:59;;;;;;;;;;;;;;;;;;6214992;23;19915;-77
2023/01/05 02:23:26;;;;;;;;;;;;;;;;;;6215266;23;19911;-77
2023/01/05 02:25:52;;;;;;;;;;;;;;;;;;6214810;23;19919;-76
2023/01/05 02:28:19;;;;;;;;;;;;;;;;;;6215063;23;19999;-76
2023/01/05 02:30:46;;;;;;;;;;;;;;;;;;6214596;23;19920;-75
2023/01/05 02:33:11;;;;;;;;;;;;;;;;;;6242082;23;19923;-76
2023/01/05 02:35:37;;;;;;;;;;;;;;;;;;6241472;23;20363;-76
2023/01/05 02:38:04;;;;;;;;;;;;;;;;;;6190265;23;19911;-76
2023/01/05 02:40:30;;;;;;;;;;;;;;;;;;6214911;23;19965;-75
2023/01/05 02:42:57;;;;;;;;;;;;;;;;;;6214970;23;19915;-76
2023/01/05 02:45:23;;;;;;;;;;;;;;;;;;6189986;23;19915;-76
2023/01/05 02:47:53;;;;;;;;;;;;;;;;;;6214517;23;20006;-76
2023/01/05 02:50:19;;;;;;;;;;;;;;;;;;6214794;23;20309;-75
2023/01/05 02:52:45;;;;;;;;;;;;;;;;;;6241814;23;20205;-76
2023/01/05 02:55:11;;;;;;;;;;;;;;;;;;6189701;23;19916;-75
2023/01/05 02:57:46;;;;;;;;;;;;;;;;;;6214894;23;19911;-75
2023/01/05 03:00:14;;;;;;;;;;;;;;;;;;6241347;23;19912;-75
2023/01/05 03:02:40;;;;;;;;;;;;;;;;;;6241190;23;19912;-74
2023/01/05 03:05:05;;;;;;;;;;;;;;;;;;6214420;23;19908;-75
2023/01/05 03:07:31;;;;;;;;;;;;;;;;;;6241747;23;19939;-75
2023/01/05 03:13:39;;;;;;;;;;;;;;;;;;6214274;23;20018;-75
2023/01/05 03:15:27;;;;;;;;;;;;;;;;;;6214213;23;19912;-76
2023/01/05 03:17:53;;;;;;;;;;;;;;;;;;6214572;23;20374;-77
2023/01/05 03:20:18;;;;;;;;;;;;;;;;;;6189084;23;20261;-76
2023/01/05 03:36:27;;;;;;;;;;;;;;;;;;6214186;23;20352;-76
2023/01/05 03:38:53;;;;;;;;;;;;;;;;;;6214247;23;20367;-75
2023/01/05 03:41:18;;;;;;;;;;;;;;;;;;6214222;23;19911;-76
2023/01/05 03:43:44;;;;;;;;;;;;;;;;;;6240897;23;19918;-76
2023/01/05 03:46:10;;;;;;;;;;;;;;;;;;6241379;23;20295;-75
2023/01/05 03:48:36;;;;;;;;;;;;;;;;;;6214865;23;20057;-74
2023/01/05 03:51:02;;;;;;;;;;;;;;;;;;6214648;23;19929;-75
2023/01/05 03:53:28;;;;;;;;;;;;;;;;;;6215396;23;19912;-75
2023/01/05 03:55:53;;;;;;;;;;;;;;;;;;6241393;23;19918;-76
2023/01/05 03:58:19;;;;;;;;;;;;;;;;;;6214502;23;19995;-75
2023/01/05 04:00:47;;;;;;;;;;;;;;;;;;6189590;23;20147;-75
2023/01/05 04:03:15;;;;;;;;;;;;;;;;;;6214719;23;19965;-75
2023/01/05 04:05:41;;;;;;;;;;;;;;;;;;6214105;23;19981;-75
2023/01/05 04:08:07;;;;;;;;;;;;;;;;;;6241054;23;19915;-75
2023/01/05 04:10:34;;;;;;;;;;;;;;;;;;6214498;23;19919;-75
2023/01/05 04:13:00;;;;;;;;;;;;;;;;;;6214298;23;19911;-75
2023/01/05 04:15:26;;;;;;;;;;;;;;;;;;6214503;23;20327;-76
2023/01/05 04:17:53;;;;;;;;;;;;;;;;;;6214260;23;20378;-75
2023/01/05 04:20:19;;;;;;;;;;;;;;;;;;6214480;23;19950;-75
2023/01/05 04:22:44;;;;;;;;;;;;;;;;;;6241765;23;19919;-76
2023/01/05 04:25:10;;;;;;;;;;;;;;;;;;6215523;23;19911;-74
2023/01/05 04:27:37;;;;;;;;;;;;;;;;;;6214939;23;19947;-75
2023/01/05 04:30:04;;;;;;;;;;;;;;;;;;6242748;23;19919;-76
2023/01/05 04:32:30;;;;;;;;;;;;;;;;;;6228955;23;19915;-76
2023/01/05 04:34:56;;;;;;;;;;;;;;;;;;6231611;23;20508;-76
2023/01/05 04:37:22;;;;;;;;;;;;;;;;;;6258790;23;19922;-75
2023/01/05 04:39:48;;;;;;;;;;;;;;;;;;6229304;23;19954;-76
2023/01/05 04:42:14;;;;;;;;;;;;;;;;;;6202699;23;19919;-76
2023/01/05 04:44:41;;;;;;;;;;;;;;;;;;6222834;23;19946;-75
2023/01/05 04:47:07;;;;;;;;;;;;;;;;;;6240803;23;19957;-74
2023/01/05 04:49:37;;;;;;;;;;;;;;;;;;6214413;23;19915;-76
2023/01/05 04:52:03;;;;;;;;;;;;;;;;;;6188875;23;20474;-76
2023/01/05 04:54:31;;;;;;;;;;;;;;;;;;6214607;23;19999;-76
2023/01/05 04:56:57;;;;;;;;;;;;;;;;;;6240862;23;19950;-76
2023/01/05 04:59:22;;;;;;;;;;;;;;;;;;6216319;23;20337;-75
2023/01/05 05:01:50;;;;;;;;;;;;;;;;;;6216373;23;19911;-74
2023/01/05 05:04:16;;;;;;;;;;;;;;;;;;6216766;23;20376;-75
2023/01/05 05:06:43;;;;;;;;;;;;;;;;;;6216212;23;19912;-76
2023/01/05 05:09:09;;;;;;;;;;;;;;;;;;6216056;23;20006;-77
2023/01/05 05:11:36;;;;;;;;;;;;;;;;;;6190965;23;19919;-76
2023/01/05 05:14:01;;;;;;;;;;;;;;;;;;6242267;23;19953;-76
2023/01/05 05:16:27;;;;;;;;;;;;;;;;;;6215649;23;20386;-75
2023/01/05 05:18:53;;;;;;;;;;;;;;;;;;6215708;23;19974;-74
2023/01/05 05:21:24;;;;;;;;;;;;;;;;;;6215468;23;19978;-75
2023/01/05 05:23:50;;;;;;;;;;;;;;;;;;6215353;23;19966;-75
2023/01/05 05:26:16;;;;;;;;;;;;;;;;;;6215662;23;19915;-75
2023/01/05 05:28:44;;;;;;;;;;;;;;;;;;6191472;23;19919;-76
2023/01/05 05:31:10;;;;;;;;;;;;;;;;;;6242137;23;19919;-75
2023/01/05 05:33:36;;;;;;;;;;;;;;;;;;6242385;23;19912;-75
2023/01/05 05:36:02;;;;;;;;;;;;;;;;;;6242015;23;19923;-75
2023/01/05 05:38:28;;;;;;;;;;;;;;;;;;6215690;23;19998;-75
2023/01/05 05:40:54;;;;;;;;;;;;;;;;;;6190296;23;19942;-76
2023/01/05 05:43:19;;;;;;;;;;;;;;;;;;6242629;23;19918;-75
2023/01/05 05:45:45;;;;;;;;;;;;;;;;;;6215673;23;20276;-76
2023/01/05 05:48:11;;;;;;;;;;;;;;;;;;6242041;23;19927;-76
2023/01/05 05:50:36;;;;;;;;;;;;;;;;;;6242262;23;19920;-75
2023/01/05 05:53:04;;;;;;;;;;;;;;;;;;6215301;23;20446;-75
2023/01/05 05:55:30;;;;;;;;;;;;;;;;;;6242269;23;19912;-76
2023/01/05 05:57:56;;;;;;;;;;;;;;;;;;6242263;23;19943;-78
2023/01/05 06:00:21;;;;;;;;;;;;;;;;;;6242335;23;19916;-77
2023/01/05 06:02:47;;;;;;;;;;;;;;;;;;6242383;23;19975;-77
2023/01/05 06:05:13;;;;;;;;;;;;;;;;;;6242226;23;19991;-75
2023/01/05 06:07:38;;;;;;;;;;;;;;;;;;6242733;23;19965;-77
2023/01/05 06:10:04;;;;;;;;;;;;;;;;;;6215270;23;19911;-77
2023/01/05 06:12:29;;;;;;;;;;;;;;;;;;6242278;23;20396;-76
2023/01/05 06:14:55;;;;;;;;;;;;;;;;;;6244131;23;20268;-76
2023/01/05 06:17:21;;;;;;;;;;;;;;;;;;6217083;23;20402;-74
2023/01/05 06:19:46;;;;;;;;;;;;;;;;;;6242106;23;19981;-75
2023/01/05 06:22:12;;;;;;;;;;;;;;;;;;6241655;23;19986;-76
2023/01/05 06:24:38;;;;;;;;;;;;;;;;;;6241746;23;20407;-73
2023/01/05 06:27:03;;;;;;;;;;;;;;;;;;6237820;23;19908;-76
2023/01/05 06:29:29;;;;;;;;;;;;;;;;;;6239951;23;19943;-76
2023/01/05 06:31:54;;;;;;;;;;;;;;;;;;6213584;23;19973;-75
2023/01/05 06:34:20;;;;;;;;;;;;;;;;;;6214210;23;20320;-76
2023/01/05 06:36:46;;;;;;;;;;;;;;;;;;6209513;23;19920;-78
2023/01/05 06:39:11;;;;;;;;;;;;;;;;;;6210856;23;19978;-76
2023/01/05 06:41:37;;;;;;;;;;;;;;;;;;6210720;23;19912;-75
2023/01/05 06:44:04;;;;;;;;;;;;;;;;;;6209196;23;20356;-76
2023/01/05 06:46:30;;;;;;;;;;;;;;;;;;6211123;23;19918;-75
2023/01/05 06:48:56;;;;;;;;;;;;;;;;;;6208541;23;19932;-78
2023/01/05 06:51:21;;;;;;;;;;;;;;;;;;6210562;23;19927;-76
2023/01/05 06:53:47;;;;;;;;;;;;;;;;;;6210674;23;19931;-78
2023/01/05 06:56:13;;;;;;;;;;;;;;;;;;6210458;23;19912;-77
2023/01/05 06:58:39;;;;;;;;;;;;;;;;;;6210647;23;19935;-78
2023/01/05 07:01:04;;;;;;;;;;;;;;;;;;6207986;23;19912;-76
2023/01/05 07:03:30;;;;;;;;;;;;;;;;;;6208666;23;19919;-77
2023/01/05 07:05:56;;;;;;;;;;;;;;;;;;6210378;23;19912;-76
2023/01/05 07:08:22;;;;;;;;;;;;;;;;;;6210518;23;19916;-75
2023/01/05 07:10:47;;;;;;;;;;;;;;;;;;6209959;23;20010;-74
2023/01/05 07:13:13;;;;;;;;;;;;;;;;;;6210180;23;20011;-77
2023/01/05 07:15:39;;;;;;;;;;;;;;;;;;6208882;23;19912;-75
2023/01/05 07:18:05;;;;;;;;;;;;;;;;;;6209983;23;20408;-76
2023/01/05 07:20:30;;;;;;;;;;;;;;;;;;6209788;23;19959;-74
2023/01/05 07:22:56;;;;;;;;;;;;;;;;;;6210304;23;20545;-76
2023/01/05 07:25:22;;;;;;;;;;;;;;;;;;6210366;23;19912;-73
2023/01/05 07:27:47;;;;;;;;;;;;;;;;;;6209928;23;19912;-73
2023/01/05 07:30:13;;;;;;;;;;;;;;;;;;6209599;23;19919;-74
2023/01/05 07:32:38;;;;;;;;;;;;;;;;;;6208549;23;19923;-74
2023/01/05 07:35:04;;;;;;;;;;;;;;;;;;6207207;23;19983;-75
2023/01/05 07:37:30;;;;;;;;;;;;;;;;;;6207407;23;20463;-76
2023/01/05 07:39:55;;;;;;;;;;;;;;;;;;6210193;23;19912;-76
2023/01/05 07:42:21;;;;;;;;;;;;;;;;;;6210554;23;19973;-75
2023/01/05 07:44:49;;;;;;;;;;;;;;;;;;6211744;23;19918;-80
2023/01/05 07:47:14;;;;;;;;;;;;;;;;;;6211844;23;19935;-80
2023/01/05 07:49:40;;;;;;;;;;;;;;;;;;6210218;23;19935;-77
2023/01/05 07:52:05;;;;;;;;;;;;;;;;;;6210094;23;19924;-76
2023/01/05 07:54:32;;;;;;;;;;;;;;;;;;6208792;23;19961;-76
2023/01/05 07:56:57;;;;;;;;;;;;;;;;;;6209288;23;19915;-76
2023/01/05 07:59:23;;;;;;;;;;;;;;;;;;6208377;23;19911;-75
2023/01/05 08:01:49;;;;;;;;;;;;;;;;;;6207397;23;19938;-74
2023/01/05 08:04:15;;;;;;;;;;;;;;;;;;6206189;23;19939;-74
2023/01/05 08:06:41;;;;;;;;;;;;;;;;;;6208137;23;20349;-74
2023/01/05 08:11:51;;;;;;;;;;;;;;;;;;6209221;23;19924;-76
2023/01/05 08:14:17;;;;;;;;;;;;;;;;;;6208188;23;19974;-75
2023/01/05 08:16:42;;;;;;;;;;;;;;;;;;6208346;23;19912;-74
2023/01/05 08:19:09;;;;;;;;;;;;;;;;;;6207767;23;19918;-74
2023/01/05 08:21:34;;;;;;;;;;;;;;;;;;6208607;23;19939;-74
2023/01/05 08:24:00;;;;;;;;;;;;;;;;;;6207059;23;19912;-74
2023/01/05 08:26:26;;;;;;;;;;;;;;;;;;6207538;23;20038;-75
2023/01/05 08:28:51;;;;;;;;;;;;;;;;;;6208025;23;19916;-76
2023/01/05 08:31:17;;;;;;;;;;;;;;;;;;6208073;23;19920;-75
2023/01/05 08:33:43;;;;;;;;;;;;;;;;;;6208738;23;19911;-74
2023/01/05 08:36:09;;;;;;;;;;;;;;;;;;6229714;23;19920;-74
2023/01/05 08:38:34;;;;;;;;;;;;;;;;;;6238568;23;19923;-73
2023/01/05 08:41:00;;;;;;;;;;;;;;;;;;6211208;23;19912;-74
2023/01/05 08:43:26;;;;;;;;;;;;;;;;;;6237872;23;19947;-75
2023/01/05 08:45:51;;;;;;;;;;;;;;;;;;6239607;23;20260;-73
2023/01/05 08:48:17;;;;;;;;;;;;;;;;;;6238887;23;19912;-74
2023/01/05 08:50:43;;;;;;;;;;;;;;;;;;6240221;23;19927;-74
2023/01/05 08:53:09;;;;;;;;;;;;;;;;;;6212979;23;20250;-75
2023/01/05 08:55:35;;;;;;;;;;;;;;;;;;6240194;23;19916;-75
2023/01/05 08:58:00;;;;;;;;;;;;;;;;;;6238796;23;19962;-75
2023/01/05 09:00:26;;;;;;;;;;;;;;;;;;6211258;23;19973;-76
2023/01/05 09:02:52;;;;;;;;;;;;;;;;;;6239436;23;20009;-76
2023/01/05 09:05:17;;;;;;;;;;;;;;;;;;6239176;23;19911;-75
2023/01/05 09:07:43;;;;;;;;;;;;;;;;;;6242651;23;20033;-76
2023/01/05 09:10:09;;;;;;;;;;;;;;;;;;6238504;23;20666;-75
2023/01/05 09:12:35;;;;;;;;;;;;;;;;;;6240170;23;19959;-76
2023/01/05 09:15:00;;;;;;;;;;;;;;;;;;6187825;23;19919;-76
2023/01/05 09:17:26;;;;;;;;;;;;;;;;;;6212377;23;19990;-78
2023/01/05 09:19:52;;;;;;;;;;;;;;;;;;6238245;23;20007;-78
2023/01/05 09:22:17;;;;;;;;;;;;;;;;;;6238283;23;19912;-78
2023/01/05 09:24:43;;;;;;;;;;;;;;;;;;6239142;23;20623;-78
2023/01/05 09:27:09;;;;;;;;;;;;;;;;;;6239322;23;19990;-77
2023/01/05 09:29:34;;;;;;;;;;;;;;;;;;6239916;23;19954;-78
2023/01/05 09:32:00;;;;;;;;;;;;;;;;;;6212542;23;20333;-78
2023/01/05 09:34:26;;;;;;;;;;;;;;;;;;6239146;23;19980;-78
2023/01/05 09:36:51;;;;;;;;;;;;;;;;;;6239518;23;20245;-78
2023/01/05 09:39:17;;;;;;;;;;;;;;;;;;6239024;23;19954;-79
2023/01/05 09:41:46;;;;;;;;;;;;;;;;;;6239466;23;20481;-81
2023/01/05 09:44:11;;;;;;;;;;;;;;;;;;6213429;23;19949;-78
2023/01/05 09:46:37;;;;;;;;;;;;;;;;;;6241663;23;20256;-78
2023/01/05 09:49:03;;;;;;;;;;;;;;;;;;6240618;23;20295;-79
2023/01/05 09:51:28;;;;;;;;;;;;;;;;;;6241211;23;19919;-77
2023/01/05 09:53:54;;;;;;;;;;;;;;;;;;6242089;23;19912;-78
2023/01/05 09:56:20;;;;;;;;;;;;;;;;;;6241565;23;19912;-80
2023/01/05 09:58:45;;;;;;;;;;;;;;;;;;6241986;23;19912;-82
2023/01/05 10:01:13;;;;;;;;;;;;;;;;;;6216890;23;19919;-81
2023/01/05 10:03:38;;;;;;;;;;;;;;;;;;6244252;23;19975;-79
2023/01/05 10:06:04;;;;;;;;;;;;;;;;;;6249087;23;19915;-80
2023/01/05 10:08:29;;;;;;;;;;;;;;;;;;6244036;23;19943;-80
2023/01/05 10:13:39;;;;;;;;;;;;;;;;;;6243914;23;19911;-79
2023/01/05 10:16:05;;;;;;;;;;;;;;;;;;6215600;23;19914;-80
2023/01/05 10:18:31;;;;;;;;;;;;;;;;;;6241755;23;19918;-78
2023/01/05 10:20:56;;;;;;;;;;;;;;;;;;6240878;23;20356;-80
2023/01/05 10:23:22;;;;;;;;;;;;;;;;;;6241944;23;19923;-80
2023/01/05 10:25:48;;;;;;;;;;;;;;;;;;6241161;23;19912;-77
2023/01/05 10:28:13;;;;;;;;;;;;;;;;;;6239633;23;19990;-79
2023/01/05 10:30:39;;;;;;;;;;;;;;;;;;6240872;23;19912;-76
2023/01/05 10:33:05;;;;;;;;;;;;;;;;;;6213736;23;20380;-78
2023/01/05 10:35:30;;;;;;;;;;;;;;;;;;6240693;23;19919;-76
2023/01/05 10:37:56;;;;;;;;;;;;;;;;;;6189784;23;20410;-78
2023/01/05 10:40:23;;;;;;;;;;;;;;;;;;6240377;23;20268;-77
2023/01/05 10:42:49;;;;;;;;;;;;;;;;;;6239569;23;19918;-78
2023/01/05 10:45:15;;;;;;;;;;;;;;;;;;6239779;23;19907;-78
2023/01/05 10:47:41;;;;;;;;;;;;;;;;;;6240472;23;20344;-79
2023/01/05 10:50:06;;;;;;;;;;;;;;;;;;6213189;23;19943;-80
2023/01/05 10:52:32;;;;;;;;;;;;;;;;;;6189035;23;19935;-79
2023/01/05 10:54:58;;;;;;;;;;;;;;;;;;6240092;23;20265;-80
2023/01/05 10:57:23;;;;;;;;;;;;;;;;;;6241568;23;20006;-81
2023/01/05 10:59:49;;;;;;;;;;;;;;;;;;6241333;23;20319;-78
2023/01/05 11:02:15;;;;;;;;;;;;;;;;;;6243534;23;19994;-80
2023/01/05 11:04:40;;;;;;;;;;;;;;;;;;6215138;23;19912;-80
2023/01/05 11:07:06;;;;;;;;;;;;;;;;;;6242078;23;20412;-80
2023/01/05 11:09:32;;;;;;;;;;;;;;;;;;6242442;23;19919;-80
2023/01/05 11:11:58;;;;;;;;;;;;;;;;;;6193522;23;19927;-81
2023/01/05 11:14:24;;;;;;;;;;;;;;;;;;6215339;23;19911;-79
2023/01/05 11:16:49;;;;;;;;;;;;;;;;;;6240526;23;20350;-79
2023/01/05 11:19:15;;;;;;;;;;;;;;;;;;6240056;23;19923;-77
2023/01/05 11:21:43;;;;;;;;;;;;;;;;;;6240684;23;19911;-78
2023/01/05 11:24:09;;;;;;;;;;;;;;;;;;6240386;23;19911;-78
2023/01/05 11:26:34;;;;;;;;;;;;;;;;;;6240443;23;20379;-77
2023/01/05 11:29:00;;;;;;;;;;;;;;;;;;6212973;23;19966;-78
2023/01/05 11:31:26;;;;;;;;;;;;;;;;;;6213914;23;20018;-78
2023/01/05 11:33:51;;;;;;;;;;;;;;;;;;6213930;23;19912;-78
2023/01/05 11:36:17;;;;;;;;;;;;;;;;;;6243591;23;19919;-80
2023/01/05 11:38:43;;;;;;;;;;;;;;;;;;6242365;23;19919;-81
2023/01/05 11:41:08;;;;;;;;;;;;;;;;;;6243528;23;19918;-77
2023/01/05 11:43:34;;;;;;;;;;;;;;;;;;6213916;23;20017;-80
2023/01/05 11:46:00;;;;;;;;;;;;;;;;;;6214953;23;19912;-79
2023/01/05 11:48:26;;;;;;;;;;;;;;;;;;6241157;23;19912;-78
2023/01/05 11:50:52;;;;;;;;;;;;;;;;;;6213964;23;19928;-78
2023/01/05 11:53:18;;;;;;;;;;;;;;;;;;6240718;23;20324;-78
2023/01/05 11:55:43;;;;;;;;;;;;;;;;;;6215746;23;19918;-79
2023/01/05 11:58:09;;;;;;;;;;;;;;;;;;6243088;23;20353;-79
2023/01/05 12:00:35;;;;;;;;;;;;;;;;;;6240351;23;19915;-79
2023/01/05 12:03:00;;;;;;;;;;;;;;;;;;6241316;23;20363;-80
2023/01/05 12:05:27;;;;;;;;;;;;;;;;;;6240899;23;19937;-80
2023/01/05 12:07:52;;;;;;;;;;;;;;;;;;6240043;23;19916;-79
2023/01/05 12:10:18;;;;;;;;;;;;;;;;;;6213710;23;20340;-79
2023/01/05 12:12:44;;;;;;;;;;;;;;;;;;6213641;23;20026;-79
2023/01/05 12:15:09;;;;;;;;;;;;;;;;;;6213004;23;19918;-77
2023/01/05 12:17:35;;;;;;;;;;;;;;;;;;6213422;23;19978;-77
2023/01/05 12:20:01;;;;;;;;;;;;;;;;;;6212854;23;19986;-78
2023/01/05 12:22:27;;;;;;;;;;;;;;;;;;6240131;23;19915;-76
2023/01/05 12:24:53;;;;;;;;;;;;;;;;;;6188929;23;20009;-77
2023/01/05 12:27:19;;;;;;;;;;;;;;;;;;6240204;23;19957;-76
2023/01/05 12:29:44;;;;;;;;;;;;;;;;;;6240806;23;20366;-76
2023/01/05 12:32:10;;;;;;;;;;;;;;;;;;6241290;23;19926;-77
2023/01/05 12:34:36;;;;;;;;;;;;;;;;;;6240465;23;19912;-77
2023/01/05 12:37:02;;;;;;;;;;;;;;;;;;6213185;23;20360;-76
2023/01/05 12:39:28;;;;;;;;;;;;;;;;;;6240569;23;19994;-76
2023/01/05 12:41:53;;;;;;;;;;;;;;;;;;6253349;23;19927;-76
2023/01/05 12:44:19;;;;;;;;;;;;;;;;;;6255555;23;19912;-77
2023/01/05 12:46:44;;;;;;;;;;;;;;;;;;6229673;23;19908;-77
2023/01/05 12:49:10;;;;;;;;;;;;;;;;;;6255847;23;19911;-77
2023/01/05 12:51:36;;;;;;;;;;;;;;;;;;6229612;23;19920;-76
2023/01/05 12:54:02;;;;;;;;;;;;;;;;;;6256450;23;19916;-77
2023/01/05 12:56:27;;;;;;;;;;;;;;;;;;6254035;23;19918;-77
2023/01/05 12:58:53;;;;;;;;;;;;;;;;;;6245983;23;19912;-78
2023/01/05 13:01:19;;;;;;;;;;;;;;;;;;6239833;23;19919;-78
2023/01/05 13:03:44;;;;;;;;;;;;;;;;;;6239104;23;20344;-77
2023/01/05 13:06:10;;;;;;;;;;;;;;;;;;6238677;23;19998;-76
2023/01/05 13:08:36;;;;;;;;;;;;;;;;;;6211757;23;19978;-76
2023/01/05 13:11:01;;;;;;;;;;;;;;;;;;6237828;23;20379;-76
2023/01/05 13:13:27;;;;;;;;;;;;;;;;;;6238454;23;19912;-76
2023/01/05 13:15:53;;;;;;;;;;;;;;;;;;6239287;23;20004;-77
2023/01/05 13:18:18;;;;;;;;;;;;;;;;;;6238818;23;20006;-76
2023/01/05 13:20:44;;;;;;;;;;;;;;;;;;6241191;23;20401;-75
2023/01/05 13:23:10;;;;;;;;;;;;;;;;;;6212676;23;19911;-75
2023/01/05 13:25:35;;;;;;;;;;;;;;;;;;6239839;23;19993;-76
2023/01/05 13:28:01;;;;;;;;;;;;;;;;;;6239456;23;19927;-77
2023/01/05 13:30:26;;;;;;;;;;;;;;;;;;6240232;23;19990;-76
2023/01/05 13:32:52;;;;;;;;;;;;;;;;;;6212796;23;19970;-77
2023/01/05 13:35:18;;;;;;;;;;;;;;;;;;6239539;23;19926;-76
2023/01/05 13:37:43;;;;;;;;;;;;;;;;;;6239914;23;20572;-76
2023/01/05 13:40:09;;;;;;;;;;;;;;;;;;6240172;23;20267;-77
2023/01/05 13:42:35;;;;;;;;;;;;;;;;;;6239814;23;19922;-79
2023/01/05 13:45:00;;;;;;;;;;;;;;;;;;6213363;23;19911;-77
2023/01/05 13:47:26;;;;;;;;;;;;;;;;;;6241003;23;19975;-76
2023/01/05 13:49:52;;;;;;;;;;;;;;;;;;6241701;23;19915;-75
2023/01/05 13:52:18;;;;;;;;;;;;;;;;;;6243351;23;19919;-80
2023/01/05 13:54:43;;;;;;;;;;;;;;;;;;6246369;23;19912;-77
2023/01/05 13:57:09;;;;;;;;;;;;;;;;;;6243175;23;19934;-75
2023/01/05 13:59:35;;;;;;;;;;;;;;;;;;6245324;23;19915;-75
2023/01/05 14:02:00;;;;;;;;;;;;;;;;;;6244895;23;19911;-77
2023/01/05 14:04:26;;;;;;;;;;;;;;;;;;6245625;23;19911;-75
2023/01/05 14:06:52;;;;;;;;;;;;;;;;;;6244106;23;20368;-75
2023/01/05 14:09:17;;;;;;;;;;;;;;;;;;6245491;23;19950;-75
2023/01/05 14:11:43;;;;;;;;;;;;;;;;;;6244817;23;19919;-75
2023/01/05 14:14:08;;;;;;;;;;;;;;;;;;6245847;23;20099;-75
2023/01/05 14:16:34;;;;;;;;;;;;;;;;;;6217751;23;19939;-75
2023/01/05 14:19:00;;;;;;;;;;;;;;;;;;6245356;23;19995;-75
2023/01/05 14:21:25;;;;;;;;;;;;;;;;;;6217859;23;19911;-75
2023/01/05 14:23:51;;;;;;;;;;;;;;;;;;6219282;23;19918;-77
2023/01/05 14:26:17;;;;;;;;;;;;;;;;;;6218386;23;19950;-75
2023/01/05 14:28:43;;;;;;;;;;;;;;;;;;6244874;23;19915;-76
2023/01/05 14:31:20;;;;;;;;;;;;;;;;;;6215207;23;19923;-75
2023/01/05 14:33:46;;;;;;;;;;;;;;;;;;6243231;23;19919;-75
2023/01/05 14:36:11;;;;;;;;;;;;;;;;;;6241510;23;19919;-75
2023/01/05 14:38:37;;;;;;;;;;;;;;;;;;6241036;23;19918;-76
2023/01/05 14:41:03;;;;;;;;;;;;;;;;;;6214749;23;19918;-78
2023/01/05 14:43:29;;;;;;;;;;;;;;;;;;6242267;23;19915;-77
2023/01/05 14:45:54;;;;;;;;;;;;;;;;;;6243669;23;19915;-77
2023/01/05 14:48:20;;;;;;;;;;;;;;;;;;6215954;23;19912;-77
2023/01/05 14:50:46;;;;;;;;;;;;;;;;;;6243367;23;19912;-77
2023/01/05 14:53:11;;;;;;;;;;;;;;;;;;6191308;23;19911;-75
2023/01/05 14:55:37;;;;;;;;;;;;;;;;;;6217247;23;20348;-74
2023/01/05 14:58:03;;;;;;;;;;;;;;;;;;6216328;23;19942;-79
2023/01/05 15:00:28;;;;;;;;;;;;;;;;;;6241549;23;19954;-76
2023/01/05 15:02:54;;;;;;;;;;;;;;;;;;6188377;23;20008;-76
2023/01/05 15:05:20;;;;;;;;;;;;;;;;;;6240359;23;19912;-76
2023/01/05 15:07:45;;;;;;;;;;;;;;;;;;6240087;23;19911;-76
2023/01/05 15:10:11;;;;;;;;;;;;;;;;;;6241622;23;19939;-77
2023/01/05 15:12:38;;;;;;;;;;;;;;;;;;6239768;23;19920;-77
2023/01/05 15:15:03;;;;;;;;;;;;;;;;;;6239826;23;20001;-75
2023/01/05 15:17:29;;;;;;;;;;;;;;;;;;6214223;23;19917;-76
2023/01/05 15:19:55;;;;;;;;;;;;;;;;;;6239331;23;19939;-76
2023/01/05 15:22:20;;;;;;;;;;;;;;;;;;6239369;23;19919;-76
2023/01/05 15:24:46;;;;;;;;;;;;;;;;;;6214057;23;19915;-78
2023/01/05 15:27:11;;;;;;;;;;;;;;;;;;6216483;23;19911;-81
2023/01/05 15:29:37;;;;;;;;;;;;;;;;;;6217790;23;20303;-80
2023/01/05 15:32:03;;;;;;;;;;;;;;;;;;6245214;23;20446;-81
2023/01/05 15:34:28;;;;;;;;;;;;;;;;;;6219295;23;19962;-80
2023/01/05 15:36:54;;;;;;;;;;;;;;;;;;6217924;23;19922;-81
2023/01/05 15:39:20;;;;;;;;;;;;;;;;;;6220332;23;19912;-81
2023/01/05 15:41:46;;;;;;;;;;;;;;;;;;6251291;23;19935;-81
2023/01/05 15:44:11;;;;;;;;;;;;;;;;;;6223095;23;19933;-81
2023/01/05 15:46:37;;;;;;;;;;;;;;;;;;6249074;23;20383;-80
2023/01/05 15:49:03;;;;;;;;;;;;;;;;;;6223368;23;19911;-81
2023/01/05 15:51:28;;;;;;;;;;;;;;;;;;6221768;23;19919;-82
2023/01/05 15:53:54;;;;;;;;;;;;;;;;;;6221050;23;20026;-81
2023/01/05 15:56:19;;;;;;;;;;;;;;;;;;6217836;23;19939;-79
2023/01/05 15:58:45;;;;;;;;;;;;;;;;;;6215967;23;19918;-80
2023/01/05 16:01:11;;;;;;;;;;;;;;;;;;6243670;23;19911;-80
2023/01/05 16:03:36;;;;;;;;;;;;;;;;;;6215224;23;19912;-78
2023/01/05 16:06:02;;;;;;;;;;;;;;;;;;6243585;23;19919;-77
2023/01/05 16:08:28;;;;;;;;;;;;;;;;;;6214951;23;20396;-77
2023/01/05 16:10:54;;;;;;;;;;;;;;;;;;6241292;23;19966;-76
2023/01/05 16:13:20;;;;;;;;;;;;;;;;;;6241435;23;20347;-75
2023/01/05 16:15:46;;;;;;;;;;;;;;;;;;6214716;23;19912;-75
2023/01/05 16:18:11;;;;;;;;;;;;;;;;;;6188444;23;19931;-76
2023/01/05 16:20:37;;;;;;;;;;;;;;;;;;6241537;23;19907;-74
2023/01/05 16:23:03;;;;;;;;;;;;;;;;;;6240902;23;19923;-76
2023/01/05 16:25:28;;;;;;;;;;;;;;;;;;6238810;23;20265;-75
2023/01/05 16:27:57;;;;;;;;;;;;;;;;;;6239618;23;19961;-75
2023/01/05 16:30:23;;;;;;;;;;;;;;;;;;6215111;23;19915;-75
2023/01/05 16:32:48;;;;;;;;;;;;;;;;;;6240921;23;19920;-75
2023/01/05 16:35:14;;;;;;;;;;;;;;;;;;6239837;23;20345;-75
2023/01/05 16:37:39;;;;;;;;;;;;;;;;;;6240006;23;19911;-76
2023/01/05 16:40:05;;;;;;;;;;;;;;;;;;6213684;23;19943;-76
2023/01/05 16:42:34;;;;;;;;;;;;;;;;;;6241214;23;19990;-76
2023/01/05 16:44:59;;;;;;;;;;;;;;;;;;6211958;23;19986;-75
2023/01/05 16:47:25;;;;;;;;;;;;;;;;;;6241255;23;19930;-76
2023/01/05 16:49:51;;;;;;;;;;;;;;;;;;6244462;23;19931;-76
2023/01/05 16:52:16;;;;;;;;;;;;;;;;;;6259443;23;20546;-74
2023/01/05 16:54:43;;;;;;;;;;;;;;;;;;6236031;23;19947;-75
2023/01/05 16:57:09;;;;;;;;;;;;;;;;;;6235798;23;20511;-75
2023/01/05 16:59:35;;;;;;;;;;;;;;;;;;6254732;23;19923;-75
2023/01/05 17:02:00;;;;;;;;;;;;;;;;;;6225979;23;19912;-73
2023/01/05 17:04:27;;;;;;;;;;;;;;;;;;6261077;23;19908;-74
2023/01/05 17:06:52;;;;;;;;;;;;;;;;;;6234641;23;19916;-74
2023/01/05 17:09:18;;;;;;;;;;;;;;;;;;6263090;23;20439;-75